Ankeny, Iowa
Current Conditions -  °F | °C
As of 3:15 AM on Monday 24 Nov 2014 (Local Time) from KIKV Reporting Station
Overcast Overcast  
Wind Chill: 20°   Ceiling: 1800
Heat Index: 32°   Visibility: 10mi
Dew Point: 27°   Wind: 20mph
Humidity: 80%   Direction: 300°WNW
Pressure: 29.39"   Gusts: 29mph
Location:  41.73°N, 93.6°W
Report Text: KIKV 240915Z AUTO 30017G25KT 10SM OVC018 M00/M03 A2939 RMK AO2
Loading
Personal Weather Stations






























Interactive Weather Map New forecast layout! Learn more

10-Day Weather Forecast

Advertisements
Track Severe Weather on mobile